Portada
METAR-TAF:

METAR-TAF

Aeropuertos :

Memmingen, Alemania

latitud: 47-59-33N, longitud: 10-14-37E, altitud: 633 m

Observación

El informe se hizo hace 42 minutos, a las 08:50 UTC
Viento 4 kt del suroeste, variando entre sur y oeste-suroeste
Temperatura 1°C
Humedad 86%
Presión 1022 hPa
Visibilidad 10 km o más
Nubes dispersas a una altura de 5100 ft

METAR: EDJA 070850Z 22004KT 190V250 9999 SCT051 01/M01 Q1022

Hora: 10:32 (09:32 UTC)

Pronóstico

El informe se hizo hace 1 hora y 32 minutos, a las 08:00 UTC
Pronóstico válido del 07 a las 09 UTC al 07 a las 18 UTC
Viento 8 kt del oeste
Visibilidad 10 km o más
Cielo nuboso a una altura de 5000 ft

TAF: EDJA 070800Z 0709/0718 26008KT 9999 BKN050

Observaciones y pronósticos meteorológicos de más de 4000 aeropuertos (mensajes METAR y TAF).

Los puntos amarillos y rojos representan las estaciones disponibles.

Ponga el ratón en el punto deseado para ver el nombre de la estación.

Haga clic para ver las observaciones y los pronósticos meteorológicos.

Para cambiar el mapa : haga clic en los botones verdes con una cruz de color negro para hacer un zoom, en el botón verde con un guión para alejar o en las flechas verdes para mapas adyacentes.


METAR-TAF: